RYR75VP EYVI-EGGW
Flight info
| Callsign | RYR75VP |
|---|---|
| Flight time | 2h 37m |
| Altitude | 34000 |
| Route | EYVI/19 N0453F340 UPAS1B UPASI DCT TUNGA DCT SUWGI DCT ARDUT DCT ALUKA DCT ROBEG L980 OSNAD DCT NOGRO M40 RINIS RINI1N EGGW/07 |
| Aircraft | B738/M-SDE2E3FGHIRWXY/LB1 |
Departure
| Time | 2026-05-05 19:21 |
|---|---|
| Airport | Vilnius International Airport (EYVI) |
Arrival
| Time | 2026-05-05 21:58 |
|---|---|
| Airport | London Luton Airport (EGGW) |
| Time | Latitude | Longitude | Altitude | Speed | Heading |
|---|---|---|---|---|---|
| 2026-05-05 18:48 | 54.64363 | 25.28274 | 650 ft | 0 kts | 142° |
| 2026-05-05 19:15 | 54.64361 | 25.28276 | 650 ft | 1 kts | 142° |
| 2026-05-05 19:15 | 54.64342 | 25.28303 | 650 ft | 6 kts | 139° |
| 2026-05-05 19:16 | 54.64315 | 25.28372 | 649 ft | 8 kts | 100° |
| 2026-05-05 19:16 | 54.64314 | 25.28464 | 650 ft | 8 kts | 89° |
| 2026-05-05 19:16 | 54.64317 | 25.28545 | 650 ft | 3 kts | 85° |
| 2026-05-05 19:16 | 54.64318 | 25.28571 | 650 ft | 5 kts | 85° |
| 2026-05-05 19:17 | 54.64335 | 25.28626 | 652 ft | 6 kts | 30° |
| 2026-05-05 19:17 | 54.64392 | 25.28620 | 653 ft | 11 kts | 348° |
| 2026-05-05 19:17 | 54.64477 | 25.28588 | 655 ft | 9 kts | 347° |
| 2026-05-05 19:17 | 54.64524 | 25.28571 | 658 ft | 7 kts | 348° |
| 2026-05-05 19:18 | 54.64568 | 25.28573 | 658 ft | 4 kts | 40° |
| 2026-05-05 19:18 | 54.64567 | 25.28620 | 657 ft | 4 kts | 126° |
| 2026-05-05 19:18 | 54.64539 | 25.28683 | 658 ft | 8 kts | 120° |
| 2026-05-05 19:18 | 54.64518 | 25.28799 | 657 ft | 12 kts | 98° |
| 2026-05-05 19:19 | 54.64508 | 25.28943 | 656 ft | 12 kts | 89° |
| 2026-05-05 19:19 | 54.64511 | 25.29066 | 657 ft | 7 kts | 103° |
| 2026-05-05 19:19 | 54.64494 | 25.29141 | 657 ft | 7 kts | 114° |
| 2026-05-05 19:19 | 54.64476 | 25.29212 | 657 ft | 6 kts | 114° |
| 2026-05-05 19:20 | 54.64444 | 25.29268 | 656 ft | 7 kts | 166° |
| 2026-05-05 19:20 | 54.64355 | 25.29225 | 654 ft | 32 kts | 202° |
| 2026-05-05 19:20 | 54.63895 | 25.28908 | 640 ft | 109 kts | 201° |
| 2026-05-05 19:20 | 54.62999 | 25.28287 | 669 ft | 166 kts | 202° |
| 2026-05-05 19:21 | 54.61920 | 25.27541 | 1425 ft | 166 kts | 203° |
| 2026-05-05 19:21 | 54.60813 | 25.26780 | 2181 ft | 175 kts | 204° |
| 2026-05-05 19:21 | 54.59678 | 25.25993 | 3007 ft | 180 kts | 204° |
| 2026-05-05 19:21 | 54.58431 | 25.25129 | 3328 ft | 205 kts | 204° |
| 2026-05-05 19:22 | 54.57033 | 25.24165 | 3532 ft | 226 kts | 204° |
| 2026-05-05 19:22 | 54.55533 | 25.23135 | 3991 ft | 235 kts | 204° |
| 2026-05-05 19:22 | 54.54001 | 25.22086 | 4706 ft | 237 kts | 204° |
| 2026-05-05 19:22 | 54.52762 | 25.21240 | 5407 ft | 234 kts | 205° |
| 2026-05-05 19:23 | 54.51558 | 25.20108 | 6051 ft | 231 kts | 225° |
| 2026-05-05 19:23 | 54.50665 | 25.17859 | 6797 ft | 229 kts | 249° |
| 2026-05-05 19:23 | 54.50380 | 25.15071 | 7182 ft | 248 kts | 271° |
| 2026-05-05 19:23 | 54.50688 | 25.12102 | 7832 ft | 255 kts | 281° |
| 2026-05-05 19:24 | 54.51164 | 25.09164 | 8622 ft | 256 kts | 282° |
| 2026-05-05 19:24 | 54.51651 | 25.06213 | 9443 ft | 256 kts | 281° |
| 2026-05-05 19:24 | 54.52125 | 25.03254 | 10135 ft | 260 kts | 281° |
| 2026-05-05 19:24 | 54.52611 | 25.00128 | 10333 ft | 282 kts | 281° |
| 2026-05-05 19:25 | 54.53065 | 24.96720 | 10502 ft | 301 kts | 272° |
| 2026-05-05 19:25 | 54.52901 | 24.93045 | 10655 ft | 318 kts | 253° |
| 2026-05-05 19:25 | 54.52179 | 24.89402 | 10857 ft | 334 kts | 249° |
| 2026-05-05 19:25 | 54.51332 | 24.85555 | 11317 ft | 343 kts | 249° |
| 2026-05-05 19:26 | 54.50484 | 24.81741 | 11904 ft | 347 kts | 249° |
| 2026-05-05 19:26 | 54.49623 | 24.77838 | 12530 ft | 350 kts | 249° |
| 2026-05-05 19:26 | 54.48762 | 24.73898 | 13099 ft | 355 kts | 249° |
| 2026-05-05 19:26 | 54.47889 | 24.69881 | 13699 ft | 359 kts | 249° |
| 2026-05-05 19:27 | 54.47013 | 24.65835 | 14230 ft | 363 kts | 249° |
| 2026-05-05 19:27 | 54.46129 | 24.61757 | 14809 ft | 365 kts | 249° |
| 2026-05-05 19:27 | 54.45237 | 24.57653 | 15377 ft | 368 kts | 249° |
| 2026-05-05 19:27 | 54.44334 | 24.53510 | 15897 ft | 372 kts | 249° |
| 2026-05-05 19:28 | 54.43420 | 24.49328 | 16424 ft | 375 kts | 249° |
| 2026-05-05 19:28 | 54.42500 | 24.45128 | 16956 ft | 378 kts | 249° |
| 2026-05-05 19:28 | 54.41569 | 24.40884 | 17457 ft | 382 kts | 249° |
| 2026-05-05 19:28 | 54.40630 | 24.36602 | 17970 ft | 385 kts | 249° |
| 2026-05-05 19:29 | 54.39677 | 24.32273 | 18400 ft | 389 kts | 249° |
| 2026-05-05 19:29 | 54.38717 | 24.27918 | 18876 ft | 390 kts | 249° |
| 2026-05-05 19:29 | 54.37852 | 24.23556 | 19360 ft | 392 kts | 252° |
| 2026-05-05 19:29 | 54.37058 | 24.19080 | 19831 ft | 394 kts | 253° |
| 2026-05-05 19:30 | 54.36286 | 24.14558 | 20284 ft | 396 kts | 253° |
| 2026-05-05 19:30 | 54.35510 | 24.10013 | 20729 ft | 398 kts | 253° |
| 2026-05-05 19:30 | 54.34724 | 24.05457 | 21162 ft | 400 kts | 253° |
| 2026-05-05 19:30 | 54.33922 | 24.00867 | 21590 ft | 402 kts | 252° |
| 2026-05-05 19:31 | 54.33109 | 23.96265 | 22003 ft | 404 kts | 252° |
| 2026-05-05 19:31 | 54.32286 | 23.91638 | 22401 ft | 406 kts | 252° |
| 2026-05-05 19:31 | 54.31458 | 23.87005 | 22795 ft | 408 kts | 252° |
| 2026-05-05 19:31 | 54.30621 | 23.82338 | 23198 ft | 410 kts | 252° |
| 2026-05-05 19:32 | 54.29779 | 23.77654 | 23565 ft | 412 kts | 252° |
| 2026-05-05 19:32 | 54.28944 | 23.73023 | 23881 ft | 414 kts | 252° |
| 2026-05-05 19:32 | 54.28089 | 23.68290 | 24206 ft | 415 kts | 252° |
| 2026-05-05 19:32 | 54.27231 | 23.63553 | 24521 ft | 417 kts | 252° |
| 2026-05-05 19:33 | 54.26368 | 23.58798 | 24822 ft | 419 kts | 252° |
| 2026-05-05 19:33 | 54.25501 | 23.54033 | 25103 ft | 421 kts | 252° |
| 2026-05-05 19:33 | 54.24623 | 23.49215 | 25403 ft | 423 kts | 252° |
| 2026-05-05 19:33 | 54.23745 | 23.44414 | 25694 ft | 424 kts | 252° |
| 2026-05-05 19:34 | 54.22839 | 23.39607 | 25977 ft | 426 kts | 250° |
| 2026-05-05 19:34 | 54.21651 | 23.35017 | 26233 ft | 428 kts | 242° |
| 2026-05-05 19:34 | 54.20197 | 23.30569 | 26504 ft | 430 kts | 242° |
| 2026-05-05 19:35 | 54.17253 | 23.21626 | 27025 ft | 433 kts | 242° |
| 2026-05-05 19:35 | 54.15785 | 23.17126 | 27362 ft | 433 kts | 242° |
| 2026-05-05 19:35 | 54.14334 | 23.12657 | 27780 ft | 431 kts | 242° |
| 2026-05-05 19:35 | 54.12887 | 23.08196 | 28185 ft | 429 kts | 242° |
| 2026-05-05 19:36 | 54.11444 | 23.03744 | 28550 ft | 428 kts | 242° |
| 2026-05-05 19:36 | 54.10001 | 22.99308 | 28881 ft | 428 kts | 242° |
| 2026-05-05 19:36 | 54.08561 | 22.94891 | 29245 ft | 427 kts | 243° |
| 2026-05-05 19:36 | 54.07283 | 22.90326 | 29619 ft | 425 kts | 250° |
| 2026-05-05 19:37 | 54.06380 | 22.85545 | 29951 ft | 423 kts | 258° |
| 2026-05-05 19:37 | 54.05815 | 22.80645 | 30291 ft | 421 kts | 259° |
| 2026-05-05 19:37 | 54.05274 | 22.75765 | 30630 ft | 419 kts | 259° |
| 2026-05-05 19:37 | 54.04731 | 22.70901 | 30965 ft | 417 kts | 259° |
| 2026-05-05 19:38 | 54.04181 | 22.66042 | 31282 ft | 416 kts | 259° |
| 2026-05-05 19:38 | 54.03637 | 22.61304 | 31583 ft | 414 kts | 259° |
| 2026-05-05 19:38 | 54.03078 | 22.56499 | 31918 ft | 412 kts | 259° |
| 2026-05-05 19:38 | 54.02520 | 22.51733 | 32249 ft | 410 kts | 259° |
| 2026-05-05 19:39 | 54.01960 | 22.46982 | 32554 ft | 409 kts | 259° |
| 2026-05-05 19:39 | 54.01398 | 22.42238 | 32836 ft | 408 kts | 259° |
| 2026-05-05 19:39 | 54.00837 | 22.37515 | 33110 ft | 407 kts | 259° |
| 2026-05-05 19:39 | 54.00275 | 22.32803 | 33364 ft | 406 kts | 259° |
| 2026-05-05 19:40 | 53.99715 | 22.28121 | 33644 ft | 405 kts | 259° |
| 2026-05-05 19:40 | 53.99341 | 22.25006 | 33843 ft | 403 kts | 259° |
| 2026-05-05 19:40 | 53.98776 | 22.20318 | 33862 ft | 407 kts | 259° |
| 2026-05-05 19:41 | 53.97638 | 22.10911 | 33877 ft | 405 kts | 259° |
| 2026-05-05 19:41 | 53.96502 | 22.01590 | 33879 ft | 402 kts | 259° |
| 2026-05-05 19:42 | 53.95365 | 21.92325 | 33887 ft | 400 kts | 259° |
| 2026-05-05 19:42 | 53.94225 | 21.83092 | 33889 ft | 399 kts | 259° |
| 2026-05-05 19:43 | 53.93082 | 21.73891 | 33888 ft | 399 kts | 259° |
| 2026-05-05 19:43 | 53.91933 | 21.64714 | 33892 ft | 400 kts | 259° |
| 2026-05-05 19:44 | 53.90769 | 21.55472 | 33895 ft | 402 kts | 259° |
| 2026-05-05 19:44 | 53.89591 | 21.46182 | 33895 ft | 403 kts | 259° |
| 2026-05-05 19:45 | 53.88402 | 21.36870 | 33894 ft | 405 kts | 259° |
| 2026-05-05 19:45 | 53.87203 | 21.27528 | 33895 ft | 406 kts | 259° |
| 2026-05-05 19:46 | 53.85993 | 21.18167 | 33891 ft | 407 kts | 259° |
| 2026-05-05 19:46 | 53.84874 | 21.08771 | 33890 ft | 407 kts | 261° |
| 2026-05-05 19:47 | 53.83864 | 20.99336 | 33886 ft | 407 kts | 261° |
| 2026-05-05 19:47 | 53.82855 | 20.89976 | 33888 ft | 406 kts | 261° |
| 2026-05-05 19:48 | 53.81819 | 20.80568 | 33886 ft | 405 kts | 260° |
| 2026-05-05 19:48 | 53.80774 | 20.71218 | 33882 ft | 405 kts | 260° |
| 2026-05-05 19:49 | 53.79719 | 20.61868 | 33887 ft | 404 kts | 260° |
| 2026-05-05 19:49 | 53.78659 | 20.52552 | 33884 ft | 403 kts | 260° |
| 2026-05-05 19:50 | 53.77594 | 20.43259 | 33887 ft | 402 kts | 260° |
| 2026-05-05 19:50 | 53.76525 | 20.33993 | 33887 ft | 401 kts | 260° |
| 2026-05-05 19:51 | 53.75449 | 20.24739 | 33884 ft | 401 kts | 260° |
| 2026-05-05 19:51 | 53.74369 | 20.15505 | 33884 ft | 400 kts | 260° |
| 2026-05-05 19:52 | 53.73465 | 20.07837 | 33883 ft | 400 kts | 260° |
| 2026-05-05 19:52 | 53.72380 | 19.98687 | 33883 ft | 400 kts | 260° |
| 2026-05-05 19:53 | 53.71283 | 19.89495 | 33884 ft | 399 kts | 259° |
| 2026-05-05 19:53 | 53.70178 | 19.80304 | 33887 ft | 399 kts | 259° |
| 2026-05-05 19:54 | 53.69067 | 19.71123 | 33885 ft | 399 kts | 259° |
| 2026-05-05 19:54 | 53.67948 | 19.61941 | 33886 ft | 399 kts | 259° |
| 2026-05-05 19:55 | 53.66829 | 19.52822 | 33885 ft | 399 kts | 259° |
| 2026-05-05 19:55 | 53.65693 | 19.43629 | 33886 ft | 399 kts | 259° |
| 2026-05-05 19:56 | 53.64553 | 19.34463 | 33882 ft | 400 kts | 259° |
| 2026-05-05 19:56 | 53.63406 | 19.25294 | 33888 ft | 400 kts | 259° |
| 2026-05-05 19:57 | 53.62250 | 19.16126 | 33885 ft | 400 kts | 258° |
| 2026-05-05 19:57 | 53.61087 | 19.06957 | 33882 ft | 400 kts | 258° |
| 2026-05-05 19:58 | 53.59924 | 18.97851 | 33883 ft | 400 kts | 258° |
| 2026-05-05 19:58 | 53.58743 | 18.88663 | 33882 ft | 401 kts | 258° |
| 2026-05-05 19:59 | 53.57555 | 18.79475 | 33886 ft | 401 kts | 258° |
| 2026-05-05 19:59 | 53.56360 | 18.70300 | 33886 ft | 402 kts | 258° |
| 2026-05-05 20:00 | 53.55165 | 18.61176 | 33884 ft | 402 kts | 258° |
| 2026-05-05 20:00 | 53.53952 | 18.51979 | 33883 ft | 403 kts | 258° |
| 2026-05-05 20:01 | 53.52732 | 18.42790 | 33886 ft | 403 kts | 258° |
| 2026-05-05 20:01 | 53.51502 | 18.33579 | 33883 ft | 403 kts | 258° |
| 2026-05-05 20:02 | 53.50264 | 18.24370 | 33888 ft | 404 kts | 258° |
| 2026-05-05 20:02 | 53.49026 | 18.15219 | 33887 ft | 404 kts | 258° |
| 2026-05-05 20:03 | 53.47774 | 18.06020 | 33882 ft | 405 kts | 258° |
| 2026-05-05 20:03 | 53.46512 | 17.96805 | 33881 ft | 405 kts | 258° |
| 2026-05-05 20:04 | 53.45243 | 17.87593 | 33882 ft | 405 kts | 257° |
| 2026-05-05 20:04 | 53.43967 | 17.78388 | 33886 ft | 405 kts | 257° |
| 2026-05-05 20:05 | 53.42682 | 17.69179 | 33878 ft | 405 kts | 257° |
| 2026-05-05 20:05 | 53.41391 | 17.59983 | 33877 ft | 405 kts | 257° |
| 2026-05-05 20:06 | 53.40095 | 17.50806 | 33873 ft | 405 kts | 257° |
| 2026-05-05 20:06 | 53.38792 | 17.41633 | 33872 ft | 405 kts | 257° |
| 2026-05-05 20:07 | 53.37482 | 17.32465 | 33869 ft | 404 kts | 257° |
| 2026-05-05 20:07 | 53.36173 | 17.23366 | 33869 ft | 404 kts | 257° |
| 2026-05-05 20:08 | 53.34853 | 17.14232 | 33872 ft | 404 kts | 257° |
| 2026-05-05 20:08 | 53.33525 | 17.05106 | 33864 ft | 403 kts | 257° |
| 2026-05-05 20:09 | 53.32191 | 16.95988 | 33864 ft | 403 kts | 257° |
| 2026-05-05 20:09 | 53.30851 | 16.86888 | 33865 ft | 403 kts | 257° |
| 2026-05-05 20:10 | 53.29505 | 16.77792 | 33863 ft | 403 kts | 257° |
| 2026-05-05 20:10 | 53.28153 | 16.68715 | 33865 ft | 402 kts | 257° |
| 2026-05-05 20:11 | 53.26803 | 16.59696 | 33865 ft | 402 kts | 256° |
| 2026-05-05 20:11 | 53.25440 | 16.50642 | 33865 ft | 402 kts | 256° |
| 2026-05-05 20:12 | 53.24068 | 16.41587 | 33862 ft | 402 kts | 256° |
| 2026-05-05 20:12 | 53.22690 | 16.32540 | 33860 ft | 402 kts | 256° |
| 2026-05-05 20:13 | 53.21304 | 16.23489 | 33859 ft | 402 kts | 256° |
| 2026-05-05 20:13 | 53.19912 | 16.14447 | 33863 ft | 402 kts | 256° |
| 2026-05-05 20:14 | 53.18522 | 16.05476 | 33857 ft | 402 kts | 256° |
| 2026-05-05 20:14 | 53.17116 | 15.96448 | 33850 ft | 402 kts | 255° |
| 2026-05-05 20:15 | 53.15704 | 15.87429 | 33856 ft | 402 kts | 255° |
| 2026-05-05 20:15 | 53.14285 | 15.78411 | 33857 ft | 404 kts | 255° |
| 2026-05-05 20:16 | 53.12861 | 15.69419 | 33848 ft | 404 kts | 255° |
| 2026-05-05 20:16 | 53.11421 | 15.60367 | 33849 ft | 405 kts | 255° |
| 2026-05-05 20:17 | 53.09971 | 15.51310 | 33847 ft | 404 kts | 255° |
| 2026-05-05 20:17 | 53.08518 | 15.42277 | 33850 ft | 403 kts | 255° |
| 2026-05-05 20:18 | 53.07061 | 15.33271 | 33847 ft | 403 kts | 254° |
| 2026-05-05 20:18 | 53.05596 | 15.24263 | 33848 ft | 403 kts | 254° |
| 2026-05-05 20:19 | 53.04124 | 15.15258 | 33845 ft | 404 kts | 254° |
| 2026-05-05 20:19 | 53.02651 | 15.06295 | 33848 ft | 404 kts | 254° |
| 2026-05-05 20:20 | 53.01165 | 14.97298 | 33847 ft | 404 kts | 254° |
| 2026-05-05 20:20 | 52.99668 | 14.88284 | 33845 ft | 405 kts | 253° |
| 2026-05-05 20:21 | 52.98164 | 14.79274 | 33842 ft | 405 kts | 253° |
| 2026-05-05 20:21 | 52.96653 | 14.70269 | 33843 ft | 405 kts | 253° |
| 2026-05-05 20:22 | 52.95133 | 14.61258 | 33848 ft | 406 kts | 253° |
| 2026-05-05 20:22 | 52.93602 | 14.52229 | 33845 ft | 406 kts | 253° |
| 2026-05-05 20:23 | 52.92067 | 14.43213 | 33844 ft | 407 kts | 253° |
| 2026-05-05 20:23 | 52.90524 | 14.34200 | 33845 ft | 407 kts | 253° |
| 2026-05-05 20:24 | 52.89216 | 14.25059 | 33853 ft | 408 kts | 258° |
| 2026-05-05 20:24 | 52.88223 | 14.15861 | 33841 ft | 409 kts | 258° |
| 2026-05-05 20:25 | 52.87235 | 14.06598 | 33845 ft | 409 kts | 258° |
| 2026-05-05 20:25 | 52.86220 | 13.97346 | 33846 ft | 409 kts | 257° |
| 2026-05-05 20:26 | 52.85182 | 13.88075 | 33843 ft | 409 kts | 257° |
| 2026-05-05 20:26 | 52.84132 | 13.78814 | 33848 ft | 409 kts | 257° |
| 2026-05-05 20:27 | 52.83074 | 13.69557 | 33843 ft | 410 kts | 257° |
| 2026-05-05 20:27 | 52.82189 | 13.61859 | 33845 ft | 410 kts | 257° |
| 2026-05-05 20:28 | 52.81117 | 13.52596 | 33845 ft | 410 kts | 257° |
| 2026-05-05 20:28 | 52.80037 | 13.43330 | 33843 ft | 410 kts | 257° |
| 2026-05-05 20:29 | 52.78950 | 13.34071 | 33846 ft | 411 kts | 257° |
| 2026-05-05 20:29 | 52.77854 | 13.24806 | 33842 ft | 411 kts | 256° |
| 2026-05-05 20:30 | 52.76756 | 13.15590 | 33849 ft | 412 kts | 256° |
| 2026-05-05 20:30 | 52.75642 | 13.06295 | 33847 ft | 413 kts | 256° |
| 2026-05-05 20:31 | 52.74519 | 12.96999 | 33848 ft | 414 kts | 256° |
| 2026-05-05 20:31 | 52.73385 | 12.87675 | 33849 ft | 414 kts | 256° |
| 2026-05-05 20:32 | 52.72242 | 12.78338 | 33847 ft | 415 kts | 256° |
| 2026-05-05 20:32 | 52.71100 | 12.69077 | 33850 ft | 415 kts | 256° |
| 2026-05-05 20:33 | 52.69941 | 12.59744 | 33854 ft | 415 kts | 255° |
| 2026-05-05 20:33 | 52.68775 | 12.50418 | 33853 ft | 415 kts | 255° |
| 2026-05-05 20:34 | 52.67601 | 12.41086 | 33846 ft | 416 kts | 255° |
| 2026-05-05 20:34 | 52.66419 | 12.31763 | 33853 ft | 416 kts | 255° |
| 2026-05-05 20:35 | 52.65230 | 12.22438 | 33849 ft | 416 kts | 255° |
| 2026-05-05 20:35 | 52.64040 | 12.13174 | 33860 ft | 416 kts | 255° |
| 2026-05-05 20:36 | 52.62833 | 12.03837 | 33858 ft | 417 kts | 254° |
| 2026-05-05 20:36 | 52.61619 | 11.94507 | 33858 ft | 417 kts | 254° |
| 2026-05-05 20:37 | 52.60395 | 11.85165 | 33855 ft | 418 kts | 254° |
| 2026-05-05 20:37 | 52.59162 | 11.75813 | 33862 ft | 418 kts | 254° |
| 2026-05-05 20:38 | 52.57920 | 11.66456 | 33849 ft | 419 kts | 253° |
| 2026-05-05 20:38 | 52.56669 | 11.57089 | 33866 ft | 420 kts | 253° |
| 2026-05-05 20:39 | 52.55416 | 11.47770 | 33866 ft | 420 kts | 253° |
| 2026-05-05 20:39 | 52.54146 | 11.38387 | 33858 ft | 421 kts | 253° |
| 2026-05-05 20:40 | 52.52867 | 11.28995 | 33857 ft | 422 kts | 253° |
| 2026-05-05 20:40 | 52.51577 | 11.19577 | 33856 ft | 422 kts | 253° |
| 2026-05-05 20:41 | 52.50277 | 11.10156 | 33854 ft | 423 kts | 253° |
| 2026-05-05 20:41 | 52.48977 | 11.00785 | 33859 ft | 424 kts | 252° |
| 2026-05-05 20:42 | 52.47651 | 10.91292 | 33855 ft | 424 kts | 252° |
| 2026-05-05 20:42 | 52.46333 | 10.81913 | 33856 ft | 425 kts | 252° |
| 2026-05-05 20:43 | 52.44996 | 10.72466 | 33861 ft | 426 kts | 252° |
| 2026-05-05 20:43 | 52.43646 | 10.62977 | 33861 ft | 426 kts | 252° |
| 2026-05-05 20:44 | 52.42292 | 10.53522 | 33861 ft | 427 kts | 252° |
| 2026-05-05 20:44 | 52.40934 | 10.44094 | 33859 ft | 428 kts | 252° |
| 2026-05-05 20:45 | 52.38867 | 10.29859 | 33860 ft | 429 kts | 252° |
| 2026-05-05 20:45 | 52.37476 | 10.20356 | 33854 ft | 430 kts | 252° |
| 2026-05-05 20:46 | 52.36076 | 10.10845 | 33852 ft | 430 kts | 251° |
| 2026-05-05 20:46 | 52.34674 | 10.01378 | 33852 ft | 431 kts | 251° |
| 2026-05-05 20:47 | 52.33253 | 9.91840 | 33855 ft | 432 kts | 251° |
| 2026-05-05 20:47 | 52.31821 | 9.82284 | 33859 ft | 432 kts | 251° |
| 2026-05-05 20:48 | 52.30382 | 9.72742 | 33854 ft | 433 kts | 251° |
| 2026-05-05 20:48 | 52.28934 | 9.63192 | 33860 ft | 433 kts | 251° |
| 2026-05-05 20:49 | 52.27477 | 9.53644 | 33853 ft | 433 kts | 251° |
| 2026-05-05 20:49 | 52.26013 | 9.44105 | 33858 ft | 433 kts | 251° |
| 2026-05-05 20:50 | 52.24551 | 9.34625 | 33847 ft | 434 kts | 251° |
| 2026-05-05 20:50 | 52.23240 | 9.25012 | 33856 ft | 438 kts | 259° |
| 2026-05-05 20:51 | 52.22956 | 9.15012 | 33860 ft | 441 kts | 263° |
| 2026-05-05 20:51 | 52.22697 | 9.05017 | 33852 ft | 441 kts | 262° |
| 2026-05-05 20:52 | 52.22372 | 8.95044 | 33854 ft | 441 kts | 262° |
| 2026-05-05 20:52 | 52.22040 | 8.85053 | 33859 ft | 441 kts | 262° |
| 2026-05-05 20:53 | 52.21703 | 8.75066 | 33864 ft | 441 kts | 262° |
| 2026-05-05 20:53 | 52.21358 | 8.65061 | 33851 ft | 442 kts | 262° |
| 2026-05-05 20:54 | 52.21007 | 8.55112 | 33858 ft | 442 kts | 262° |
| 2026-05-05 20:54 | 52.20645 | 8.45098 | 33862 ft | 443 kts | 261° |
| 2026-05-05 20:55 | 52.20266 | 8.35066 | 33848 ft | 443 kts | 261° |
| 2026-05-05 20:55 | 52.19895 | 8.25062 | 33859 ft | 443 kts | 262° |
| 2026-05-05 20:56 | 52.19636 | 8.14991 | 33853 ft | 444 kts | 263° |
| 2026-05-05 20:56 | 52.19402 | 8.04910 | 33861 ft | 444 kts | 263° |
| 2026-05-05 20:57 | 52.19150 | 7.94890 | 33864 ft | 444 kts | 263° |
| 2026-05-05 20:57 | 52.18878 | 7.84834 | 33861 ft | 444 kts | 262° |
| 2026-05-05 20:58 | 52.18594 | 7.74757 | 33853 ft | 445 kts | 262° |
| 2026-05-05 20:58 | 52.18301 | 7.64688 | 33854 ft | 445 kts | 262° |
| 2026-05-05 20:59 | 52.17999 | 7.54615 | 33879 ft | 445 kts | 262° |
| 2026-05-05 20:59 | 52.17689 | 7.44527 | 33859 ft | 445 kts | 262° |
| 2026-05-05 21:00 | 52.17370 | 7.34446 | 33863 ft | 445 kts | 262° |
| 2026-05-05 21:00 | 52.17043 | 7.24372 | 33865 ft | 446 kts | 262° |
| 2026-05-05 21:01 | 52.16709 | 7.14365 | 33865 ft | 446 kts | 262° |
| 2026-05-05 21:01 | 52.16364 | 7.04283 | 33872 ft | 446 kts | 262° |
| 2026-05-05 21:02 | 52.16011 | 6.94208 | 33874 ft | 446 kts | 262° |
| 2026-05-05 21:02 | 52.15649 | 6.84136 | 33874 ft | 446 kts | 262° |
| 2026-05-05 21:03 | 52.15278 | 6.74037 | 33876 ft | 446 kts | 262° |
| 2026-05-05 21:03 | 52.14899 | 6.63948 | 33878 ft | 446 kts | 262° |
| 2026-05-05 21:04 | 52.14511 | 6.53883 | 33876 ft | 445 kts | 262° |
| 2026-05-05 21:04 | 52.14115 | 6.43814 | 33882 ft | 445 kts | 262° |
| 2026-05-05 21:05 | 52.13711 | 6.33752 | 33884 ft | 445 kts | 262° |
| 2026-05-05 21:05 | 52.13298 | 6.23700 | 33888 ft | 445 kts | 262° |
| 2026-05-05 21:06 | 52.12877 | 6.13656 | 33882 ft | 444 kts | 261° |
| 2026-05-05 21:06 | 52.12448 | 6.03625 | 33885 ft | 444 kts | 261° |
| 2026-05-05 21:07 | 52.12012 | 5.93650 | 33887 ft | 444 kts | 261° |
| 2026-05-05 21:07 | 52.11563 | 5.83553 | 33888 ft | 445 kts | 261° |
| 2026-05-05 21:08 | 52.11111 | 5.73585 | 33883 ft | 445 kts | 261° |
| 2026-05-05 21:08 | 52.10647 | 5.63545 | 33888 ft | 445 kts | 261° |
| 2026-05-05 21:09 | 52.10174 | 5.53497 | 33894 ft | 445 kts | 261° |
| 2026-05-05 21:09 | 52.09693 | 5.43457 | 33894 ft | 445 kts | 261° |
| 2026-05-05 21:10 | 52.09203 | 5.33423 | 33902 ft | 445 kts | 261° |
| 2026-05-05 21:10 | 52.08705 | 5.23389 | 33903 ft | 445 kts | 261° |
| 2026-05-05 21:11 | 52.08200 | 5.13373 | 33910 ft | 445 kts | 261° |
| 2026-05-05 21:11 | 52.07685 | 5.03354 | 33915 ft | 444 kts | 261° |
| 2026-05-05 21:12 | 52.07166 | 4.93411 | 33919 ft | 444 kts | 261° |
| 2026-05-05 21:12 | 52.06636 | 4.83419 | 33922 ft | 444 kts | 261° |
| 2026-05-05 21:13 | 52.06096 | 4.73420 | 33912 ft | 444 kts | 261° |
| 2026-05-05 21:13 | 52.05639 | 4.65058 | 33911 ft | 443 kts | 261° |
| 2026-05-05 21:14 | 52.05362 | 4.60050 | 33723 ft | 447 kts | 261° |
| 2026-05-05 21:14 | 52.05080 | 4.55018 | 33433 ft | 446 kts | 261° |
| 2026-05-05 21:14 | 52.04804 | 4.50079 | 33166 ft | 444 kts | 261° |
| 2026-05-05 21:14 | 52.04522 | 4.45092 | 32903 ft | 445 kts | 261° |
| 2026-05-05 21:15 | 52.04236 | 4.40074 | 32631 ft | 446 kts | 261° |
| 2026-05-05 21:15 | 52.03947 | 4.35050 | 32363 ft | 447 kts | 261° |
| 2026-05-05 21:15 | 52.03656 | 4.30037 | 32119 ft | 447 kts | 261° |
| 2026-05-05 21:15 | 52.03363 | 4.24998 | 31857 ft | 448 kts | 261° |
| 2026-05-05 21:16 | 52.03068 | 4.19977 | 31597 ft | 447 kts | 261° |
| 2026-05-05 21:16 | 52.02770 | 4.14944 | 31348 ft | 446 kts | 261° |
| 2026-05-05 21:16 | 52.02472 | 4.09924 | 31093 ft | 445 kts | 261° |
| 2026-05-05 21:16 | 52.02173 | 4.04939 | 30838 ft | 442 kts | 261° |
| 2026-05-05 21:17 | 52.01874 | 3.99995 | 30590 ft | 440 kts | 261° |
| 2026-05-05 21:17 | 52.01574 | 3.95064 | 30343 ft | 437 kts | 261° |
| 2026-05-05 21:17 | 52.01275 | 3.90174 | 30100 ft | 434 kts | 261° |
| 2026-05-05 21:17 | 52.00975 | 3.85321 | 29835 ft | 431 kts | 261° |
| 2026-05-05 21:18 | 52.00676 | 3.80495 | 29546 ft | 428 kts | 261° |
| 2026-05-05 21:18 | 52.00375 | 3.75693 | 29259 ft | 426 kts | 261° |
| 2026-05-05 21:18 | 52.00075 | 3.70924 | 28975 ft | 424 kts | 261° |
| 2026-05-05 21:18 | 51.99772 | 3.66154 | 28704 ft | 422 kts | 261° |
| 2026-05-05 21:19 | 51.99471 | 3.61440 | 28442 ft | 420 kts | 261° |
| 2026-05-05 21:19 | 51.99169 | 3.56744 | 28160 ft | 418 kts | 261° |
| 2026-05-05 21:19 | 51.98870 | 3.52115 | 27895 ft | 417 kts | 261° |
| 2026-05-05 21:19 | 51.98566 | 3.47445 | 27634 ft | 415 kts | 261° |
| 2026-05-05 21:20 | 51.98262 | 3.42788 | 27370 ft | 414 kts | 261° |
| 2026-05-05 21:20 | 51.97956 | 3.38142 | 27105 ft | 413 kts | 261° |
| 2026-05-05 21:20 | 51.97651 | 3.33527 | 26852 ft | 412 kts | 261° |
| 2026-05-05 21:20 | 51.97343 | 3.28911 | 26600 ft | 411 kts | 261° |
| 2026-05-05 21:21 | 51.97037 | 3.24319 | 26347 ft | 409 kts | 261° |
| 2026-05-05 21:21 | 51.96728 | 3.19728 | 26095 ft | 408 kts | 261° |
| 2026-05-05 21:21 | 51.96421 | 3.15169 | 25841 ft | 407 kts | 262° |
| 2026-05-05 21:21 | 51.96123 | 3.10620 | 25594 ft | 405 kts | 262° |
| 2026-05-05 21:22 | 51.95830 | 3.06078 | 25350 ft | 404 kts | 262° |
| 2026-05-05 21:22 | 51.95540 | 3.01558 | 25102 ft | 402 kts | 262° |
| 2026-05-05 21:22 | 51.95249 | 2.97065 | 24860 ft | 400 kts | 262° |
| 2026-05-05 21:22 | 51.94955 | 2.92579 | 24619 ft | 399 kts | 262° |
| 2026-05-05 21:23 | 51.94661 | 2.88118 | 24378 ft | 397 kts | 262° |
| 2026-05-05 21:23 | 51.94369 | 2.83728 | 24151 ft | 396 kts | 263° |
| 2026-05-05 21:23 | 51.94073 | 2.79298 | 23915 ft | 394 kts | 263° |
| 2026-05-05 21:23 | 51.93778 | 2.74889 | 23679 ft | 393 kts | 263° |
| 2026-05-05 21:24 | 51.93481 | 2.70494 | 23442 ft | 392 kts | 263° |
| 2026-05-05 21:24 | 51.93182 | 2.66106 | 23165 ft | 391 kts | 263° |
| 2026-05-05 21:24 | 51.92882 | 2.61726 | 22887 ft | 390 kts | 263° |
| 2026-05-05 21:24 | 51.92581 | 2.57360 | 22614 ft | 389 kts | 263° |
| 2026-05-05 21:25 | 51.92280 | 2.53009 | 22345 ft | 388 kts | 263° |
| 2026-05-05 21:25 | 51.91978 | 2.48666 | 22082 ft | 387 kts | 263° |
| 2026-05-05 21:25 | 51.91676 | 2.44334 | 21979 ft | 388 kts | 263° |
| 2026-05-05 21:25 | 51.91372 | 2.39994 | 21951 ft | 387 kts | 263° |
| 2026-05-05 21:26 | 51.91068 | 2.35680 | 21950 ft | 386 kts | 263° |
| 2026-05-05 21:26 | 51.90771 | 2.31349 | 21910 ft | 386 kts | 264° |
| 2026-05-05 21:26 | 51.90602 | 2.26993 | 21407 ft | 389 kts | 268° |
| 2026-05-05 21:26 | 51.90521 | 2.22631 | 21020 ft | 385 kts | 268° |
| 2026-05-05 21:27 | 51.90457 | 2.18321 | 20617 ft | 381 kts | 268° |
| 2026-05-05 21:27 | 51.90383 | 2.14039 | 20241 ft | 378 kts | 268° |
| 2026-05-05 21:27 | 51.90297 | 2.09810 | 19859 ft | 375 kts | 268° |
| 2026-05-05 21:27 | 51.90201 | 2.05654 | 19486 ft | 373 kts | 268° |
| 2026-05-05 21:28 | 51.90100 | 2.01468 | 19117 ft | 371 kts | 268° |
| 2026-05-05 21:28 | 51.89995 | 1.97285 | 18746 ft | 372 kts | 268° |
| 2026-05-05 21:28 | 51.89909 | 1.93108 | 18366 ft | 371 kts | 271° |
| 2026-05-05 21:28 | 51.90344 | 1.89005 | 18010 ft | 367 kts | 289° |
| 2026-05-05 21:29 | 51.91439 | 1.85250 | 17970 ft | 371 kts | 304° |
| 2026-05-05 21:29 | 51.93004 | 1.82014 | 17969 ft | 358 kts | 310° |
| 2026-05-05 21:29 | 51.94594 | 1.78998 | 17947 ft | 344 kts | 310° |
| 2026-05-05 21:29 | 51.96142 | 1.76092 | 17580 ft | 341 kts | 310° |
| 2026-05-05 21:30 | 51.97668 | 1.73207 | 17422 ft | 334 kts | 310° |
| 2026-05-05 21:30 | 51.99174 | 1.70334 | 17305 ft | 339 kts | 310° |
| 2026-05-05 21:30 | 52.00742 | 1.67318 | 17203 ft | 358 kts | 310° |
| 2026-05-05 21:30 | 52.02347 | 1.64214 | 17059 ft | 361 kts | 309° |
| 2026-05-05 21:31 | 52.03956 | 1.61089 | 16922 ft | 359 kts | 309° |
| 2026-05-05 21:31 | 52.05553 | 1.57981 | 16806 ft | 356 kts | 309° |
| 2026-05-05 21:31 | 52.07131 | 1.54903 | 16685 ft | 353 kts | 309° |
| 2026-05-05 21:31 | 52.08698 | 1.51843 | 16570 ft | 351 kts | 309° |
| 2026-05-05 21:32 | 52.10238 | 1.48834 | 16465 ft | 350 kts | 309° |
| 2026-05-05 21:32 | 52.11790 | 1.45797 | 16357 ft | 349 kts | 309° |
| 2026-05-05 21:32 | 52.13344 | 1.42752 | 16235 ft | 349 kts | 309° |
| 2026-05-05 21:32 | 52.14855 | 1.39651 | 16127 ft | 349 kts | 303° |
| 2026-05-05 21:33 | 52.15975 | 1.36158 | 16030 ft | 348 kts | 291° |
| 2026-05-05 21:33 | 52.16662 | 1.32380 | 15909 ft | 347 kts | 279° |
| 2026-05-05 21:33 | 52.16979 | 1.28487 | 15806 ft | 346 kts | 277° |
| 2026-05-05 21:33 | 52.17255 | 1.24595 | 15692 ft | 346 kts | 277° |
| 2026-05-05 21:34 | 52.17542 | 1.20699 | 15584 ft | 347 kts | 277° |
| 2026-05-05 21:34 | 52.17839 | 1.16796 | 15456 ft | 344 kts | 277° |
| 2026-05-05 21:34 | 52.18135 | 1.12977 | 15354 ft | 343 kts | 277° |
| 2026-05-05 21:34 | 52.18435 | 1.09120 | 15248 ft | 345 kts | 277° |
| 2026-05-05 21:35 | 52.18737 | 1.05244 | 15134 ft | 344 kts | 277° |
| 2026-05-05 21:35 | 52.19034 | 1.01402 | 15019 ft | 341 kts | 277° |
| 2026-05-05 21:35 | 52.19329 | 0.97569 | 14912 ft | 341 kts | 277° |
| 2026-05-05 21:35 | 52.19623 | 0.93738 | 14774 ft | 341 kts | 277° |
| 2026-05-05 21:36 | 52.19915 | 0.89903 | 14662 ft | 340 kts | 277° |
| 2026-05-05 21:36 | 52.20206 | 0.86077 | 14552 ft | 339 kts | 277° |
| 2026-05-05 21:36 | 52.20494 | 0.82272 | 14446 ft | 338 kts | 277° |
| 2026-05-05 21:36 | 52.20776 | 0.78526 | 14340 ft | 336 kts | 277° |
| 2026-05-05 21:37 | 52.21056 | 0.74798 | 14226 ft | 327 kts | 277° |
| 2026-05-05 21:37 | 52.21327 | 0.71178 | 14108 ft | 316 kts | 277° |
| 2026-05-05 21:37 | 52.21586 | 0.67682 | 14034 ft | 306 kts | 277° |
| 2026-05-05 21:37 | 52.21837 | 0.64290 | 13899 ft | 298 kts | 277° |
| 2026-05-05 21:38 | 52.22080 | 0.60984 | 13655 ft | 295 kts | 277° |
| 2026-05-05 21:38 | 52.22322 | 0.57679 | 13416 ft | 292 kts | 277° |
| 2026-05-05 21:38 | 52.22561 | 0.54406 | 13196 ft | 290 kts | 277° |
| 2026-05-05 21:38 | 52.22799 | 0.51146 | 12978 ft | 289 kts | 277° |
| 2026-05-05 21:39 | 52.23034 | 0.47898 | 12761 ft | 289 kts | 277° |
| 2026-05-05 21:39 | 52.23129 | 0.44604 | 12160 ft | 300 kts | 259° |
| 2026-05-05 21:39 | 52.22498 | 0.41363 | 11854 ft | 298 kts | 252° |
| 2026-05-05 21:39 | 52.21808 | 0.38169 | 11425 ft | 301 kts | 252° |
| 2026-05-05 21:40 | 52.21124 | 0.34976 | 11206 ft | 295 kts | 252° |
| 2026-05-05 21:40 | 52.20447 | 0.31783 | 10795 ft | 297 kts | 253° |
| 2026-05-05 21:40 | 52.19778 | 0.28604 | 10474 ft | 296 kts | 253° |
| 2026-05-05 21:40 | 52.19115 | 0.25433 | 10155 ft | 295 kts | 253° |
| 2026-05-05 21:41 | 52.18456 | 0.22273 | 9836 ft | 294 kts | 253° |
| 2026-05-05 21:41 | 52.17812 | 0.19182 | 9518 ft | 292 kts | 253° |
| 2026-05-05 21:41 | 52.17158 | 0.16046 | 9194 ft | 291 kts | 254° |
| 2026-05-05 21:41 | 52.16536 | 0.13060 | 8906 ft | 289 kts | 253° |
| 2026-05-05 21:42 | 52.15892 | 0.09969 | 8592 ft | 288 kts | 253° |
| 2026-05-05 21:42 | 52.15249 | 0.06892 | 8301 ft | 285 kts | 253° |
| 2026-05-05 21:42 | 52.14610 | 0.03843 | 7991 ft | 283 kts | 254° |
| 2026-05-05 21:42 | 52.13975 | 0.00813 | 7707 ft | 280 kts | 253° |
| 2026-05-05 21:43 | 52.13349 | -0.02176 | 7420 ft | 278 kts | 253° |
| 2026-05-05 21:43 | 52.12729 | -0.05132 | 7140 ft | 276 kts | 254° |
| 2026-05-05 21:43 | 52.12117 | -0.08049 | 6852 ft | 274 kts | 253° |
| 2026-05-05 21:43 | 52.11701 | -0.10026 | 6658 ft | 273 kts | 253° |
| 2026-05-05 21:44 | 52.11517 | -0.10898 | 6577 ft | 272 kts | 253° |
| 2026-05-05 21:44 | 52.10906 | -0.13793 | 6293 ft | 269 kts | 253° |
| 2026-05-05 21:44 | 52.10282 | -0.16632 | 5991 ft | 264 kts | 247° |
| 2026-05-05 21:44 | 52.09220 | -0.19000 | 5816 ft | 256 kts | 229° |
| 2026-05-05 21:45 | 52.08028 | -0.21111 | 5602 ft | 250 kts | 230° |
| 2026-05-05 21:45 | 52.06869 | -0.23199 | 5426 ft | 248 kts | 230° |
| 2026-05-05 21:45 | 52.05724 | -0.25276 | 5247 ft | 246 kts | 230° |
| 2026-05-05 21:45 | 52.04584 | -0.27348 | 5081 ft | 244 kts | 230° |
| 2026-05-05 21:46 | 52.03458 | -0.29396 | 5020 ft | 242 kts | 230° |
| 2026-05-05 21:46 | 52.02342 | -0.31424 | 5008 ft | 239 kts | 230° |
| 2026-05-05 21:46 | 52.01240 | -0.33424 | 5004 ft | 237 kts | 230° |
| 2026-05-05 21:46 | 52.00156 | -0.35395 | 4993 ft | 239 kts | 231° |
| 2026-05-05 21:47 | 51.99354 | -0.37738 | 5013 ft | 239 kts | 253° |
| 2026-05-05 21:47 | 51.98864 | -0.40342 | 5015 ft | 242 kts | 256° |
| 2026-05-05 21:47 | 51.98405 | -0.42966 | 4999 ft | 241 kts | 257° |
| 2026-05-05 21:47 | 51.97863 | -0.45523 | 4974 ft | 241 kts | 240° |
| 2026-05-05 21:48 | 51.96846 | -0.47663 | 5002 ft | 237 kts | 232° |
| 2026-05-05 21:48 | 51.95808 | -0.49727 | 4988 ft | 236 kts | 233° |
| 2026-05-05 21:48 | 51.94858 | -0.51650 | 4993 ft | 235 kts | 233° |
| 2026-05-05 21:48 | 51.93841 | -0.53725 | 5008 ft | 232 kts | 233° |
| 2026-05-05 21:49 | 51.92861 | -0.55729 | 5001 ft | 218 kts | 233° |
| 2026-05-05 21:49 | 51.91940 | -0.57618 | 4989 ft | 209 kts | 233° |
| 2026-05-05 21:49 | 51.91056 | -0.59430 | 4980 ft | 208 kts | 234° |
| 2026-05-05 21:49 | 51.90150 | -0.61362 | 5003 ft | 215 kts | 242° |
| 2026-05-05 21:50 | 51.89689 | -0.63559 | 5019 ft | 205 kts | 259° |
| 2026-05-05 21:50 | 51.89331 | -0.65765 | 5014 ft | 201 kts | 257° |
| 2026-05-05 21:50 | 51.88954 | -0.67946 | 5002 ft | 201 kts | 257° |
| 2026-05-05 21:50 | 51.88570 | -0.70140 | 5002 ft | 203 kts | 257° |
| 2026-05-05 21:51 | 51.88184 | -0.72339 | 5002 ft | 203 kts | 256° |
| 2026-05-05 21:51 | 51.87575 | -0.74392 | 4985 ft | 207 kts | 226° |
| 2026-05-05 21:51 | 51.86326 | -0.75454 | 4823 ft | 208 kts | 185° |
| 2026-05-05 21:51 | 51.84934 | -0.75108 | 4607 ft | 200 kts | 161° |
| 2026-05-05 21:52 | 51.82399 | -0.73573 | 4056 ft | 187 kts | 128° |
| 2026-05-05 21:52 | 51.82007 | -0.71783 | 3925 ft | 166 kts | 81° |
| 2026-05-05 21:52 | 51.82167 | -0.69937 | 3756 ft | 169 kts | 81° |
| 2026-05-05 21:53 | 51.82329 | -0.68052 | 3595 ft | 169 kts | 81° |
| 2026-05-05 21:53 | 51.82520 | -0.66181 | 3420 ft | 168 kts | 77° |
| 2026-05-05 21:53 | 51.82780 | -0.64339 | 3254 ft | 168 kts | 75° |
| 2026-05-05 21:53 | 51.83071 | -0.62537 | 3085 ft | 163 kts | 74° |
| 2026-05-05 21:54 | 51.83371 | -0.60748 | 3023 ft | 168 kts | 73° |
| 2026-05-05 21:54 | 51.83677 | -0.58942 | 3010 ft | 167 kts | 74° |
| 2026-05-05 21:54 | 51.83975 | -0.57198 | 2949 ft | 156 kts | 74° |
| 2026-05-05 21:54 | 51.84264 | -0.55499 | 2774 ft | 157 kts | 74° |
| 2026-05-05 21:55 | 51.84548 | -0.53837 | 2593 ft | 147 kts | 74° |
| 2026-05-05 21:55 | 51.84814 | -0.52275 | 2363 ft | 140 kts | 74° |
| 2026-05-05 21:55 | 51.85070 | -0.50776 | 2176 ft | 137 kts | 72° |
| 2026-05-05 21:55 | 51.85327 | -0.49282 | 1997 ft | 139 kts | 72° |
| 2026-05-05 21:56 | 51.85580 | -0.47770 | 1799 ft | 140 kts | 73° |
| 2026-05-05 21:56 | 51.85829 | -0.46253 | 1600 ft | 137 kts | 72° |
| 2026-05-05 21:56 | 51.86085 | -0.44786 | 1370 ft | 136 kts | 71° |
| 2026-05-05 21:56 | 51.86357 | -0.43296 | 1197 ft | 140 kts | 71° |
| 2026-05-05 21:57 | 51.86616 | -0.41745 | 1012 ft | 145 kts | 71° |
| 2026-05-05 21:57 | 51.86884 | -0.40156 | 813 ft | 148 kts | 72° |
| 2026-05-05 21:57 | 51.87162 | -0.38567 | 594 ft | 147 kts | 71° |
| 2026-05-05 21:57 | 51.87431 | -0.37052 | 522 ft | 128 kts | 73° |
| 2026-05-05 21:58 | 51.87584 | -0.36123 | 516 ft | 14 kts | 76° |
| 2026-05-05 21:58 | 51.87611 | -0.35958 | 515 ft | 11 kts | 64° |
| 2026-05-05 21:58 | 51.87680 | -0.35925 | 515 ft | 11 kts | 348° |
| 2026-05-05 21:58 | 51.87736 | -0.35951 | 515 ft | 7 kts | 341° |
| 2026-05-05 21:59 | 51.87765 | -0.35976 | 515 ft | 7 kts | 322° |
| 2026-05-05 21:59 | 51.87787 | -0.36049 | 517 ft | 7 kts | 274° |
| 2026-05-05 21:59 | 51.87776 | -0.36129 | 517 ft | 7 kts | 256° |
| 2026-05-05 21:59 | 51.87763 | -0.36206 | 517 ft | 7 kts | 254° |
| 2026-05-05 22:00 | 51.87747 | -0.36295 | 517 ft | 10 kts | 253° |
| 2026-05-05 22:00 | 51.87726 | -0.36413 | 518 ft | 12 kts | 254° |
| 2026-05-05 22:00 | 51.87702 | -0.36549 | 519 ft | 13 kts | 255° |
| 2026-05-05 22:00 | 51.87676 | -0.36698 | 521 ft | 14 kts | 254° |
| 2026-05-05 22:01 | 51.87650 | -0.36846 | 524 ft | 14 kts | 254° |
| 2026-05-05 22:01 | 51.87625 | -0.36995 | 521 ft | 16 kts | 254° |
| 2026-05-05 22:01 | 51.87594 | -0.37175 | 521 ft | 16 kts | 254° |
| 2026-05-05 22:01 | 51.87577 | -0.37286 | 521 ft | 8 kts | 264° |
| 2026-05-05 22:02 | 51.87577 | -0.37325 | 521 ft | 2 kts | 275° |
| 2026-05-05 22:02 | 51.87582 | -0.37349 | 521 ft | 2 kts | 299° |
| 2026-05-05 22:02 | 51.87596 | -0.37362 | 521 ft | 3 kts | 345° |
| 2026-05-05 22:02 | 51.87620 | -0.37361 | 520 ft | 4 kts | 7° |
| 2026-05-05 22:03 | 51.87642 | -0.37355 | 520 ft | 1 kts | 11° |
| 2026-05-05 22:03 | 51.87646 | -0.37353 | 520 ft | 0 kts | 11° |